sensor_id;sensor_type;location;lat;lon;timestamp;temperature;humidity
13796;SHT30;40911;51.552;9.874;2023-05-07T00:01:52;13.12;85.79
13796;SHT30;40911;51.552;9.874;2023-05-07T00:04:14;12.89;86.07
13796;SHT30;40911;51.552;9.874;2023-05-07T00:06:35;12.68;87.03
13796;SHT30;40911;51.552;9.874;2023-05-07T00:08:57;12.91;86.30
13796;SHT30;40911;51.552;9.874;2023-05-07T00:11:20;12.79;86.66
13796;SHT30;40911;51.552;9.874;2023-05-07T00:13:42;12.74;86.61
13796;SHT30;40911;51.552;9.874;2023-05-07T00:16:04;12.67;87.11
13796;SHT30;40911;51.552;9.874;2023-05-07T00:18:26;12.75;86.84
13796;SHT30;40911;51.552;9.874;2023-05-07T00:20:47;12.84;86.59
13796;SHT30;40911;51.552;9.874;2023-05-07T00:23:09;12.74;87.09
13796;SHT30;40911;51.552;9.874;2023-05-07T00:25:31;12.64;87.03
13796;SHT30;40911;51.552;9.874;2023-05-07T00:27:54;12.72;87.28
13796;SHT30;40911;51.552;9.874;2023-05-07T00:30:15;12.54;87.96
13796;SHT30;40911;51.552;9.874;2023-05-07T00:32:37;12.40;87.97
13796;SHT30;40911;51.552;9.874;2023-05-07T00:34:59;12.61;87.90
13796;SHT30;40911;51.552;9.874;2023-05-07T00:37:20;12.57;87.25
13796;SHT30;40911;51.552;9.874;2023-05-07T00:39:42;12.68;87.53
13796;SHT30;40911;51.552;9.874;2023-05-07T00:42:04;12.84;86.88
13796;SHT30;40911;51.552;9.874;2023-05-07T00:44:26;12.58;87.55
13796;SHT30;40911;51.552;9.874;2023-05-07T00:46:49;12.78;86.86
13796;SHT30;40911;51.552;9.874;2023-05-07T00:49:10;12.48;87.77
13796;SHT30;40911;51.552;9.874;2023-05-07T00:51:33;12.54;87.60
13796;SHT30;40911;51.552;9.874;2023-05-07T00:53:54;12.64;87.43
13796;SHT30;40911;51.552;9.874;2023-05-07T00:56:16;12.54;87.61
13796;SHT30;40911;51.552;9.874;2023-05-07T00:58:38;12.50;87.89
13796;SHT30;40911;51.552;9.874;2023-05-07T01:01:01;12.46;87.79
13796;SHT30;40911;51.552;9.874;2023-05-07T01:03:23;12.60;87.61
13796;SHT30;40911;51.552;9.874;2023-05-07T01:05:46;12.58;87.90
13796;SHT30;40911;51.552;9.874;2023-05-07T01:08:10;12.53;87.72
13796;SHT30;40911;51.552;9.874;2023-05-07T01:10:32;12.51;87.66
13796;SHT30;40911;51.552;9.874;2023-05-07T01:12:54;12.57;87.75
13796;SHT30;40911;51.552;9.874;2023-05-07T01:15:15;12.47;87.46
13796;SHT30;40911;51.552;9.874;2023-05-07T01:17:41;12.12;88.58
13796;SHT30;40911;51.552;9.874;2023-05-07T01:20:04;12.22;88.43
13796;SHT30;40911;51.552;9.874;2023-05-07T01:22:30;12.33;88.13
13796;SHT30;40911;51.552;9.874;2023-05-07T01:24:52;12.51;87.49
13796;SHT30;40911;51.552;9.874;2023-05-07T01:27:16;12.36;87.77
13796;SHT30;40911;51.552;9.874;2023-05-07T01:29:38;12.25;88.24
13796;SHT30;40911;51.552;9.874;2023-05-07T01:32:00;12.51;87.20
13796;SHT30;40911;51.552;9.874;2023-05-07T01:34:22;12.36;87.75
13796;SHT30;40911;51.552;9.874;2023-05-07T01:36:46;12.29;87.95
13796;SHT30;40911;51.552;9.874;2023-05-07T01:39:10;12.27;87.94
13796;SHT30;40911;51.552;9.874;2023-05-07T01:41:32;12.20;88.14
13796;SHT30;40911;51.552;9.874;2023-05-07T01:43:54;12.20;88.05
13796;SHT30;40911;51.552;9.874;2023-05-07T01:46:16;12.27;87.72
13796;SHT30;40911;51.552;9.874;2023-05-07T01:48:39;12.16;87.91
13796;SHT30;40911;51.552;9.874;2023-05-07T01:51:01;12.20;88.02
13796;SHT30;40911;51.552;9.874;2023-05-07T01:53:23;12.20;87.91
13796;SHT30;40911;51.552;9.874;2023-05-07T01:55:46;12.20;87.90
13796;SHT30;40911;51.552;9.874;2023-05-07T01:58:08;12.40;87.13
13796;SHT30;40911;51.552;9.874;2023-05-07T02:00:29;12.27;87.62
13796;SHT30;40911;51.552;9.874;2023-05-07T02:02:51;12.12;88.18
13796;SHT30;40911;51.552;9.874;2023-05-07T02:05:13;12.13;88.09
13796;SHT30;40911;51.552;9.874;2023-05-07T02:07:34;12.15;87.82
13796;SHT30;40911;51.552;9.874;2023-05-07T02:09:56;12.16;87.87
13796;SHT30;40911;51.552;9.874;2023-05-07T02:12:19;12.08;87.94
13796;SHT30;40911;51.552;9.874;2023-05-07T02:14:41;12.19;87.96
13796;SHT30;40911;51.552;9.874;2023-05-07T02:17:02;12.05;88.04
13796;SHT30;40911;51.552;9.874;2023-05-07T02:22:33;12.23;87.08
13796;SHT30;40911;51.552;9.874;2023-05-07T02:24:55;12.09;87.64
13796;SHT30;40911;51.552;9.874;2023-05-07T02:27:16;11.88;88.02
13796;SHT30;40911;51.552;9.874;2023-05-07T02:29:39;11.86;87.90
13796;SHT30;40911;51.552;9.874;2023-05-07T02:32:01;11.75;88.17
13796;SHT30;40911;51.552;9.874;2023-05-07T02:34:22;11.83;87.77
13796;SHT30;40911;51.552;9.874;2023-05-07T02:36:44;11.77;88.01
13796;SHT30;40911;51.552;9.874;2023-05-07T02:39:06;11.74;88.12
13796;SHT30;40911;51.552;9.874;2023-05-07T02:41:27;11.71;88.25
13796;SHT30;40911;51.552;9.874;2023-05-07T02:43:49;11.69;88.07
13796;SHT30;40911;51.552;9.874;2023-05-07T02:46:12;11.64;87.81
13796;SHT30;40911;51.552;9.874;2023-05-07T02:48:34;11.57;87.94
13796;SHT30;40911;51.552;9.874;2023-05-07T02:50:55;11.48;88.33
13796;SHT30;40911;51.552;9.874;2023-05-07T02:53:17;11.67;87.99
13796;SHT30;40911;51.552;9.874;2023-05-07T02:55:39;11.36;88.46
13796;SHT30;40911;51.552;9.874;2023-05-07T02:58:00;11.58;87.97
13796;SHT30;40911;51.552;9.874;2023-05-07T03:00:22;11.68;87.94
13796;SHT30;40911;51.552;9.874;2023-05-07T03:02:45;11.60;88.26
13796;SHT30;40911;51.552;9.874;2023-05-07T03:05:07;11.85;87.65
13796;SHT30;40911;51.552;9.874;2023-05-07T03:07:29;11.60;87.98
13796;SHT30;40911;51.552;9.874;2023-05-07T03:09:51;11.57;88.22
13796;SHT30;40911;51.552;9.874;2023-05-07T03:12:12;11.67;88.11
13796;SHT30;40911;51.552;9.874;2023-05-07T03:14:34;11.47;89.21
13796;SHT30;40911;51.552;9.874;2023-05-07T03:16:55;11.58;88.97
13796;SHT30;40911;51.552;9.874;2023-05-07T03:19:18;11.51;89.80
13796;SHT30;40911;51.552;9.874;2023-05-07T03:21:40;11.68;89.28
13796;SHT30;40911;51.552;9.874;2023-05-07T03:24:02;11.30;90.68
13796;SHT30;40911;51.552;9.874;2023-05-07T03:26:23;11.51;89.80
13796;SHT30;40911;51.552;9.874;2023-05-07T03:28:45;11.50;89.95
13796;SHT30;40911;51.552;9.874;2023-05-07T03:31:07;11.41;90.11
13796;SHT30;40911;51.552;9.874;2023-05-07T03:33:28;11.54;90.14
13796;SHT30;40911;51.552;9.874;2023-05-07T03:35:51;11.40;89.26
13796;SHT30;40911;51.552;9.874;2023-05-07T03:38:13;11.39;89.58
13796;SHT30;40911;51.552;9.874;2023-05-07T03:40:35;11.33;89.51
13796;SHT30;40911;51.552;9.874;2023-05-07T03:42:56;11.34;90.19
13796;SHT30;40911;51.552;9.874;2023-05-07T03:45:18;11.40;89.94
13796;SHT30;40911;51.552;9.874;2023-05-07T03:47:39;11.46;89.99
13796;SHT30;40911;51.552;9.874;2023-05-07T03:50:01;11.24;90.38
13796;SHT30;40911;51.552;9.874;2023-05-07T03:52:24;11.37;90.49
13796;SHT30;40911;51.552;9.874;2023-05-07T03:54:46;11.48;89.61
13796;SHT30;40911;51.552;9.874;2023-05-07T03:57:07;11.16;90.93
13796;SHT30;40911;51.552;9.874;2023-05-07T03:59:29;11.14;91.21
13796;SHT30;40911;51.552;9.874;2023-05-07T04:01:51;11.09;90.85
13796;SHT30;40911;51.552;9.874;2023-05-07T04:04:12;11.12;91.14
13796;SHT30;40911;51.552;9.874;2023-05-07T04:06:34;11.24;91.02
13796;SHT30;40911;51.552;9.874;2023-05-07T04:08:57;11.12;91.44
13796;SHT30;40911;51.552;9.874;2023-05-07T04:11:18;11.04;91.01
13796;SHT30;40911;51.552;9.874;2023-05-07T04:13:40;10.99;92.00
13796;SHT30;40911;51.552;9.874;2023-05-07T04:16:02;10.95;91.90
13796;SHT30;40911;51.552;9.874;2023-05-07T04:18:24;10.88;91.41
13796;SHT30;40911;51.552;9.874;2023-05-07T04:20:46;10.78;91.31
13796;SHT30;40911;51.552;9.874;2023-05-07T04:23:07;10.82;91.97
13796;SHT30;40911;51.552;9.874;2023-05-07T04:25:31;10.92;91.22
13796;SHT30;40911;51.552;9.874;2023-05-07T04:27:52;10.79;91.05
13796;SHT30;40911;51.552;9.874;2023-05-07T04:30:14;10.79;91.80
13796;SHT30;40911;51.552;9.874;2023-05-07T04:32:35;10.67;92.01
13796;SHT30;40911;51.552;9.874;2023-05-07T04:34:57;10.81;91.45
13796;SHT30;40911;51.552;9.874;2023-05-07T04:37:19;10.69;91.85
13796;SHT30;40911;51.552;9.874;2023-05-07T04:39:41;10.61;92.17
13796;SHT30;40911;51.552;9.874;2023-05-07T04:42:04;10.58;92.19
13796;SHT30;40911;51.552;9.874;2023-05-07T04:44:27;10.79;91.55
13796;SHT30;40911;51.552;9.874;2023-05-07T04:46:51;10.83;91.36
13796;SHT30;40911;51.552;9.874;2023-05-07T04:49:12;10.61;92.01
13796;SHT30;40911;51.552;9.874;2023-05-07T04:51:34;10.51;92.33
13796;SHT30;40911;51.552;9.874;2023-05-07T04:53:56;10.78;91.50
13796;SHT30;40911;51.552;9.874;2023-05-07T04:56:17;10.60;92.01
13796;SHT30;40911;51.552;9.874;2023-05-07T04:58:40;10.65;91.65
13796;SHT30;40911;51.552;9.874;2023-05-07T05:01:02;10.60;91.55
13796;SHT30;40911;51.552;9.874;2023-05-07T05:03:25;10.57;91.93
13796;SHT30;40911;51.552;9.874;2023-05-07T05:05:48;10.38;92.36
13796;SHT30;40911;51.552;9.874;2023-05-07T05:08:10;10.60;92.08
13796;SHT30;40911;51.552;9.874;2023-05-07T05:10:31;10.49;91.95
13796;SHT30;40911;51.552;9.874;2023-05-07T05:12:53;10.68;91.64
13796;SHT30;40911;51.552;9.874;2023-05-07T05:15:16;10.55;92.57
13796;SHT30;40911;51.552;9.874;2023-05-07T05:17:38;10.69;91.81
13796;SHT30;40911;51.552;9.874;2023-05-07T05:20:00;10.60;91.98
13796;SHT30;40911;51.552;9.874;2023-05-07T05:22:21;10.54;91.86
13796;SHT30;40911;51.552;9.874;2023-05-07T05:24:43;10.65;92.02
13796;SHT30;40911;51.552;9.874;2023-05-07T05:27:05;10.51;92.39
13796;SHT30;40911;51.552;9.874;2023-05-07T05:29:26;10.42;92.82
13796;SHT30;40911;51.552;9.874;2023-05-07T05:31:49;10.83;92.20
13796;SHT30;40911;51.552;9.874;2023-05-07T05:34:11;10.68;92.26
13796;SHT30;40911;51.552;9.874;2023-05-07T05:36:32;10.75;92.48
13796;SHT30;40911;51.552;9.874;2023-05-07T05:38:55;10.79;92.09
13796;SHT30;40911;51.552;9.874;2023-05-07T05:41:16;10.82;91.61
13796;SHT30;40911;51.552;9.874;2023-05-07T05:43:38;10.82;91.65
13796;SHT30;40911;51.552;9.874;2023-05-07T05:46:00;10.82;91.80
13796;SHT30;40911;51.552;9.874;2023-05-07T05:48:23;10.93;91.69
13796;SHT30;40911;51.552;9.874;2023-05-07T05:50:44;10.82;92.37
13796;SHT30;40911;51.552;9.874;2023-05-07T05:53:06;10.76;91.65
13796;SHT30;40911;51.552;9.874;2023-05-07T05:55:27;10.67;91.90
13796;SHT30;40911;51.552;9.874;2023-05-07T05:57:49;10.89;91.56
13796;SHT30;40911;51.552;9.874;2023-05-07T06:00:12;10.68;91.85
13796;SHT30;40911;51.552;9.874;2023-05-07T06:02:34;10.54;92.04
13796;SHT30;40911;51.552;9.874;2023-05-07T06:04:57;10.71;91.72
13796;SHT30;40911;51.552;9.874;2023-05-07T06:07:18;10.71;92.03
13796;SHT30;40911;51.552;9.874;2023-05-07T06:09:40;10.61;91.94
13796;SHT30;40911;51.552;9.874;2023-05-07T06:12:01;10.68;92.21
13796;SHT30;40911;51.552;9.874;2023-05-07T06:14:23;10.57;92.09
13796;SHT30;40911;51.552;9.874;2023-05-07T06:16:45;10.74;91.79
13796;SHT30;40911;51.552;9.874;2023-05-07T06:19:06;10.72;91.23
13796;SHT30;40911;51.552;9.874;2023-05-07T06:21:29;10.68;91.61
13796;SHT30;40911;51.552;9.874;2023-05-07T06:23:51;10.79;91.05
13796;SHT30;40911;51.552;9.874;2023-05-07T06:26:15;10.71;91.23
13796;SHT30;40911;51.552;9.874;2023-05-07T06:28:36;10.62;91.52
13796;SHT30;40911;51.552;9.874;2023-05-07T06:31:11;10.76;91.50
13796;SHT30;40911;51.552;9.874;2023-05-07T06:33:32;10.60;91.26
13796;SHT30;40911;51.552;9.874;2023-05-07T06:35:54;10.65;91.46
13796;SHT30;40911;51.552;9.874;2023-05-07T06:38:17;10.71;91.39
13796;SHT30;40911;51.552;9.874;2023-05-07T06:40:38;10.76;91.25
13796;SHT30;40911;51.552;9.874;2023-05-07T06:43:00;10.88;91.32
13796;SHT30;40911;51.552;9.874;2023-05-07T06:45:22;10.95;91.01
13796;SHT30;40911;51.552;9.874;2023-05-07T06:47:44;11.00;91.07
13796;SHT30;40911;51.552;9.874;2023-05-07T06:50:07;10.91;90.57
13796;SHT30;40911;51.552;9.874;2023-05-07T06:52:29;10.96;90.89
13796;SHT30;40911;51.552;9.874;2023-05-07T06:54:52;10.99;91.19
13796;SHT30;40911;51.552;9.874;2023-05-07T06:57:14;11.14;90.56
13796;SHT30;40911;51.552;9.874;2023-05-07T06:59:36;10.96;90.58
13796;SHT30;40911;51.552;9.874;2023-05-07T07:01:57;11.06;91.22
13796;SHT30;40911;51.552;9.874;2023-05-07T07:04:19;11.13;91.58
13796;SHT30;40911;51.552;9.874;2023-05-07T07:06:42;11.17;90.54
13796;SHT30;40911;51.552;9.874;2023-05-07T07:09:04;11.04;90.97
13796;SHT30;40911;51.552;9.874;2023-05-07T07:11:27;10.91;91.25
13796;SHT30;40911;51.552;9.874;2023-05-07T07:13:48;10.96;90.99
13796;SHT30;40911;51.552;9.874;2023-05-07T07:16:10;10.99;90.58
13796;SHT30;40911;51.552;9.874;2023-05-07T07:18:32;10.99;90.50
13796;SHT30;40911;51.552;9.874;2023-05-07T07:20:54;10.93;90.41
13796;SHT30;40911;51.552;9.874;2023-05-07T07:23:15;10.88;91.07
13796;SHT30;40911;51.552;9.874;2023-05-07T07:25:37;10.99;90.32
13796;SHT30;40911;51.552;9.874;2023-05-07T07:28:00;11.00;90.57
13796;SHT30;40911;51.552;9.874;2023-05-07T07:30:22;10.85;90.43
13796;SHT30;40911;51.552;9.874;2023-05-07T07:32:43;10.86;90.59
13796;SHT30;40911;51.552;9.874;2023-05-07T07:35:06;10.92;90.43
13796;SHT30;40911;51.552;9.874;2023-05-07T07:37:28;10.95;90.16
13796;SHT30;40911;51.552;9.874;2023-05-07T07:39:50;10.83;90.30
13796;SHT30;40911;51.552;9.874;2023-05-07T07:42:11;10.78;90.66
13796;SHT30;40911;51.552;9.874;2023-05-07T07:44:34;10.76;90.67
13796;SHT30;40911;51.552;9.874;2023-05-07T07:46:56;11.00;90.28
13796;SHT30;40911;51.552;9.874;2023-05-07T07:49:18;10.99;90.19
13796;SHT30;40911;51.552;9.874;2023-05-07T07:51:40;10.88;90.21
13796;SHT30;40911;51.552;9.874;2023-05-07T07:54:02;10.89;90.64
13796;SHT30;40911;51.552;9.874;2023-05-07T07:56:25;10.99;90.50
13796;SHT30;40911;51.552;9.874;2023-05-07T07:58:47;11.06;90.06
13796;SHT30;40911;51.552;9.874;2023-05-07T08:01:11;11.09;89.81
13796;SHT30;40911;51.552;9.874;2023-05-07T08:03:33;10.97;89.47
13796;SHT30;40911;51.552;9.874;2023-05-07T08:05:55;11.00;89.98
13796;SHT30;40911;51.552;9.874;2023-05-07T08:08:17;11.02;89.50
13796;SHT30;40911;51.552;9.874;2023-05-07T08:10:40;10.95;90.02
13796;SHT30;40911;51.552;9.874;2023-05-07T08:13:01;10.93;90.14
13796;SHT30;40911;51.552;9.874;2023-05-07T08:15:24;10.91;90.05
13796;SHT30;40911;51.552;9.874;2023-05-07T08:17:47;10.96;90.04
13796;SHT30;40911;51.552;9.874;2023-05-07T08:20:09;10.93;89.66
13796;SHT30;40911;51.552;9.874;2023-05-07T08:22:31;10.89;89.69
13796;SHT30;40911;51.552;9.874;2023-05-07T08:24:52;10.99;90.02
13796;SHT30;40911;51.552;9.874;2023-05-07T08:27:14;10.92;90.22
13796;SHT30;40911;51.552;9.874;2023-05-07T08:29:36;11.13;89.70
13796;SHT30;40911;51.552;9.874;2023-05-07T08:31:58;11.13;89.17
13796;SHT30;40911;51.552;9.874;2023-05-07T08:34:20;11.13;89.30
13796;SHT30;40911;51.552;9.874;2023-05-07T08:36:43;11.28;89.20
13796;SHT30;40911;51.552;9.874;2023-05-07T08:39:07;11.33;89.13
13796;SHT30;40911;51.552;9.874;2023-05-07T08:41:28;11.27;89.10
13796;SHT30;40911;51.552;9.874;2023-05-07T08:43:50;11.20;88.94
13796;SHT30;40911;51.552;9.874;2023-05-07T08:46:17;11.43;88.84
13796;SHT30;40911;51.552;9.874;2023-05-07T08:48:39;11.26;88.53
13796;SHT30;40911;51.552;9.874;2023-05-07T08:51:03;11.33;88.58
13796;SHT30;40911;51.552;9.874;2023-05-07T08:53:25;11.43;88.59
13796;SHT30;40911;51.552;9.874;2023-05-07T08:55:47;11.58;88.22
13796;SHT30;40911;51.552;9.874;2023-05-07T08:58:09;11.50;88.69
13796;SHT30;40911;51.552;9.874;2023-05-07T09:00:32;11.54;88.24
13796;SHT30;40911;51.552;9.874;2023-05-07T09:02:54;11.37;87.32
13796;SHT30;40911;51.552;9.874;2023-05-07T09:05:15;11.58;87.97
13796;SHT30;40911;51.552;9.874;2023-05-07T09:07:39;11.51;87.99
13796;SHT30;40911;51.552;9.874;2023-05-07T09:10:02;11.65;87.23
13796;SHT30;40911;51.552;9.874;2023-05-07T09:12:24;11.82;87.05
13796;SHT30;40911;51.552;9.874;2023-05-07T09:14:45;11.81;87.29
13796;SHT30;40911;51.552;9.874;2023-05-07T09:17:07;11.74;87.12
13796;SHT30;40911;51.552;9.874;2023-05-07T09:19:29;11.89;87.17
13796;SHT30;40911;51.552;9.874;2023-05-07T09:21:57;11.83;87.29
13796;SHT30;40911;51.552;9.874;2023-05-07T09:24:21;11.95;86.87
13796;SHT30;40911;51.552;9.874;2023-05-07T09:26:42;12.00;86.56
13796;SHT30;40911;51.552;9.874;2023-05-07T09:29:04;12.03;86.63
13796;SHT30;40911;51.552;9.874;2023-05-07T09:31:26;12.09;86.03
13796;SHT30;40911;51.552;9.874;2023-05-07T09:33:47;11.71;86.75
13796;SHT30;40911;51.552;9.874;2023-05-07T09:36:09;11.69;87.12
13796;SHT30;40911;51.552;9.874;2023-05-07T09:38:32;11.75;86.40
13796;SHT30;40911;51.552;9.874;2023-05-07T09:41:03;11.85;86.43
13796;SHT30;40911;51.552;9.874;2023-05-07T09:43:25;11.79;86.67
13796;SHT30;40911;51.552;9.874;2023-05-07T09:45:47;11.74;86.43
13796;SHT30;40911;51.552;9.874;2023-05-07T09:48:12;11.68;86.31
13796;SHT30;40911;51.552;9.874;2023-05-07T09:50:45;11.82;86.47
13796;SHT30;40911;51.552;9.874;2023-05-07T09:53:09;11.95;86.05
13796;SHT30;40911;51.552;9.874;2023-05-07T09:55:31;11.79;86.43
13796;SHT30;40911;51.552;9.874;2023-05-07T09:57:55;11.93;86.36
13796;SHT30;40911;51.552;9.874;2023-05-07T10:00:19;11.98;86.06
13796;SHT30;40911;51.552;9.874;2023-05-07T10:02:42;12.00;85.92
13796;SHT30;40911;51.552;9.874;2023-05-07T10:05:09;12.25;86.14
13796;SHT30;40911;51.552;9.874;2023-05-07T10:07:30;12.13;85.78
13796;SHT30;40911;51.552;9.874;2023-05-07T10:09:52;12.10;85.86
13796;SHT30;40911;51.552;9.874;2023-05-07T10:12:14;12.16;85.46
13796;SHT30;40911;51.552;9.874;2023-05-07T10:14:38;12.16;85.66
13796;SHT30;40911;51.552;9.874;2023-05-07T10:17:03;12.19;85.40
13796;SHT30;40911;51.552;9.874;2023-05-07T10:27:04;12.44;84.84
13796;SHT30;40911;51.552;9.874;2023-05-07T10:29:34;12.61;84.42
13796;SHT30;40911;51.552;9.874;2023-05-07T10:32:10;12.51;84.44
13796;SHT30;40911;51.552;9.874;2023-05-07T10:34:40;12.93;84.01
13796;SHT30;40911;51.552;9.874;2023-05-07T10:37:03;12.50;84.60
13796;SHT30;40911;51.552;9.874;2023-05-07T10:39:41;12.76;84.25
13796;SHT30;40911;51.552;9.874;2023-05-07T10:42:53;12.95;84.17
13796;SHT30;40911;51.552;9.874;2023-05-07T10:45:15;13.02;83.64
13796;SHT30;40911;51.552;9.874;2023-05-07T10:48:11;12.95;82.76
13796;SHT30;40911;51.552;9.874;2023-05-07T10:50:32;12.81;83.61
13796;SHT30;40911;51.552;9.874;2023-05-07T10:55:50;12.99;82.79
13796;SHT30;40911;51.552;9.874;2023-05-07T10:58:25;12.98;83.00
13796;SHT30;40911;51.552;9.874;2023-05-07T11:00:48;12.93;83.29
13796;SHT30;40911;51.552;9.874;2023-05-07T11:03:11;13.01;82.69
13796;SHT30;40911;51.552;9.874;2023-05-07T11:05:33;13.03;83.43
13796;SHT30;40911;51.552;9.874;2023-05-07T11:07:56;13.20;83.32
13796;SHT30;40911;51.552;9.874;2023-05-07T11:10:17;12.98;83.02
13796;SHT30;40911;51.552;9.874;2023-05-07T11:12:52;13.03;82.72
13796;SHT30;40911;51.552;9.874;2023-05-07T11:15:14;13.26;82.15
13796;SHT30;40911;51.552;9.874;2023-05-07T11:17:52;13.50;82.50
13796;SHT30;40911;51.552;9.874;2023-05-07T11:20:16;13.62;81.66
13796;SHT30;40911;51.552;9.874;2023-05-07T11:22:38;13.73;81.48
13796;SHT30;40911;51.552;9.874;2023-05-07T11:25:01;13.89;81.24
13796;SHT30;40911;51.552;9.874;2023-05-07T11:27:23;13.61;81.77
13796;SHT30;40911;51.552;9.874;2023-05-07T11:29:46;13.70;80.75
13796;SHT30;40911;51.552;9.874;2023-05-07T11:32:08;13.40;81.44
13796;SHT30;40911;51.552;9.874;2023-05-07T11:34:30;13.41;81.99
13796;SHT30;40911;51.552;9.874;2023-05-07T11:36:55;13.53;81.65
13796;SHT30;40911;51.552;9.874;2023-05-07T11:39:24;13.41;81.86
13796;SHT30;40911;51.552;9.874;2023-05-07T11:41:46;13.51;82.26
13796;SHT30;40911;51.552;9.874;2023-05-07T11:44:07;13.34;82.60
13796;SHT30;40911;51.552;9.874;2023-05-07T11:46:29;13.27;82.23
13796;SHT30;40911;51.552;9.874;2023-05-07T11:48:51;13.53;81.65
13796;SHT30;40911;51.552;9.874;2023-05-07T11:51:12;13.60;81.27
13796;SHT30;40911;51.552;9.874;2023-05-07T11:53:38;13.58;81.38
13796;SHT30;40911;51.552;9.874;2023-05-07T11:56:06;13.61;81.24
13796;SHT30;40911;51.552;9.874;2023-05-07T11:58:28;13.87;81.30
13796;SHT30;40911;51.552;9.874;2023-05-07T12:00:50;13.85;81.05
13796;SHT30;40911;51.552;9.874;2023-05-07T12:03:22;13.71;80.90
13796;SHT30;40911;51.552;9.874;2023-05-07T12:05:47;13.82;80.16
13796;SHT30;40911;51.552;9.874;2023-05-07T12:08:09;14.08;80.03
13796;SHT30;40911;51.552;9.874;2023-05-07T12:10:40;14.12;79.98
13796;SHT30;40911;51.552;9.874;2023-05-07T12:13:02;14.01;80.07
13796;SHT30;40911;51.552;9.874;2023-05-07T12:15:35;13.77;80.70
13796;SHT30;40911;51.552;9.874;2023-05-07T12:17:57;14.08;80.25
13796;SHT30;40911;51.552;9.874;2023-05-07T12:20:22;13.84;80.60
13796;SHT30;40911;51.552;9.874;2023-05-07T12:22:46;13.84;80.79
13796;SHT30;40911;51.552;9.874;2023-05-07T12:25:18;14.22;80.28
13796;SHT30;40911;51.552;9.874;2023-05-07T12:27:43;14.23;79.95
13796;SHT30;40911;51.552;9.874;2023-05-07T12:30:05;14.13;79.82
13796;SHT30;40911;51.552;9.874;2023-05-07T12:32:27;14.33;80.09
13796;SHT30;40911;51.552;9.874;2023-05-07T12:34:50;14.40;79.31
13796;SHT30;40911;51.552;9.874;2023-05-07T12:37:13;14.52;78.43
13796;SHT30;40911;51.552;9.874;2023-05-07T12:39:34;14.40;79.58
13796;SHT30;40911;51.552;9.874;2023-05-07T12:41:58;14.43;79.65
13796;SHT30;40911;51.552;9.874;2023-05-07T12:44:23;14.61;79.12
13796;SHT30;40911;51.552;9.874;2023-05-07T12:46:46;14.29;79.95
13796;SHT30;40911;51.552;9.874;2023-05-07T12:49:08;14.47;79.80
13796;SHT30;40911;51.552;9.874;2023-05-07T12:51:30;14.71;78.97
13796;SHT30;40911;51.552;9.874;2023-05-07T12:53:56;14.77;78.41
13796;SHT30;40911;51.552;9.874;2023-05-07T12:56:18;15.12;77.68
13796;SHT30;40911;51.552;9.874;2023-05-07T12:58:40;15.42;76.79
13796;SHT30;40911;51.552;9.874;2023-05-07T13:01:05;15.90;76.22
13796;SHT30;40911;51.552;9.874;2023-05-07T13:03:28;15.57;75.95
13796;SHT30;40911;51.552;9.874;2023-05-07T13:05:50;16.24;74.67
13796;SHT30;40911;51.552;9.874;2023-05-07T13:08:12;16.24;75.97
13796;SHT30;40911;51.552;9.874;2023-05-07T13:10:44;16.84;75.34
13796;SHT30;40911;51.552;9.874;2023-05-07T13:13:06;15.99;75.88
13796;SHT30;40911;51.552;9.874;2023-05-07T13:15:27;16.22;74.39
13796;SHT30;40911;51.552;9.874;2023-05-07T13:17:50;15.47;75.58
13796;SHT30;40911;51.552;9.874;2023-05-07T13:20:12;15.35;75.42
13796;SHT30;40911;51.552;9.874;2023-05-07T13:22:34;15.61;75.46
13796;SHT30;40911;51.552;9.874;2023-05-07T13:24:55;16.28;75.71
13796;SHT30;40911;51.552;9.874;2023-05-07T13:27:17;16.24;73.80
13796;SHT30;40911;51.552;9.874;2023-05-07T13:29:39;16.24;74.41
13796;SHT30;40911;51.552;9.874;2023-05-07T13:32:00;16.09;75.17
13796;SHT30;40911;51.552;9.874;2023-05-07T13:34:24;15.94;74.99
13796;SHT30;40911;51.552;9.874;2023-05-07T13:36:45;15.85;75.90
13796;SHT30;40911;51.552;9.874;2023-05-07T13:39:07;16.90;73.77
13796;SHT30;40911;51.552;9.874;2023-05-07T13:41:29;16.56;73.34
13796;SHT30;40911;51.552;9.874;2023-05-07T13:43:51;16.98;72.98
13796;SHT30;40911;51.552;9.874;2023-05-07T13:46:12;16.74;72.25
13796;SHT30;40911;51.552;9.874;2023-05-07T13:48:34;17.18;71.50
13796;SHT30;40911;51.552;9.874;2023-05-07T13:50:57;17.33;71.21
13796;SHT30;40911;51.552;9.874;2023-05-07T13:53:19;16.74;71.66
13796;SHT30;40911;51.552;9.874;2023-05-07T13:55:40;16.67;71.41
13796;SHT30;40911;51.552;9.874;2023-05-07T13:58:02;17.35;71.43
13796;SHT30;40911;51.552;9.874;2023-05-07T14:00:25;16.68;71.67
13796;SHT30;40911;51.552;9.874;2023-05-07T14:02:46;17.57;70.73
13796;SHT30;40911;51.552;9.874;2023-05-07T14:05:08;17.01;72.33
13796;SHT30;40911;51.552;9.874;2023-05-07T14:07:31;17.66;70.38
13796;SHT30;40911;51.552;9.874;2023-05-07T14:09:53;17.56;69.96
13796;SHT30;40911;51.552;9.874;2023-05-07T14:12:15;17.29;70.49
13796;SHT30;40911;51.552;9.874;2023-05-07T14:14:37;17.29;70.35
13796;SHT30;40911;51.552;9.874;2023-05-07T14:16:58;16.83;70.99
13796;SHT30;40911;51.552;9.874;2023-05-07T14:19:20;17.08;71.35
13796;SHT30;40911;51.552;9.874;2023-05-07T14:21:43;17.31;71.12
13796;SHT30;40911;51.552;9.874;2023-05-07T14:24:07;17.43;70.58
13796;SHT30;40911;51.552;9.874;2023-05-07T14:26:28;17.01;71.98
13796;SHT30;40911;51.552;9.874;2023-05-07T14:28:50;16.83;71.73
13796;SHT30;40911;51.552;9.874;2023-05-07T14:31:12;16.90;72.04
13796;SHT30;40911;51.552;9.874;2023-05-07T14:33:33;16.66;71.87
13796;SHT30;40911;51.552;9.874;2023-05-07T14:35:55;17.00;71.57
13796;SHT30;40911;51.552;9.874;2023-05-07T14:38:16;16.67;71.38
13796;SHT30;40911;51.552;9.874;2023-05-07T14:40:39;16.67;72.00
13796;SHT30;40911;51.552;9.874;2023-05-07T14:43:01;16.80;71.23
13796;SHT30;40911;51.552;9.874;2023-05-07T14:45:22;17.69;70.59
13796;SHT30;40911;51.552;9.874;2023-05-07T14:47:44;17.03;71.26
13796;SHT30;40911;51.552;9.874;2023-05-07T14:50:06;16.78;71.45
13796;SHT30;40911;51.552;9.874;2023-05-07T14:52:28;17.08;71.19
13796;SHT30;40911;51.552;9.874;2023-05-07T14:54:49;17.16;70.15
13796;SHT30;40911;51.552;9.874;2023-05-07T14:57:13;17.22;71.32
13796;SHT30;40911;51.552;9.874;2023-05-07T14:59:37;17.67;70.03
13796;SHT30;40911;51.552;9.874;2023-05-07T15:01:59;17.24;71.22
13796;SHT30;40911;51.552;9.874;2023-05-07T15:04:21;17.29;70.10
13796;SHT30;40911;51.552;9.874;2023-05-07T15:06:43;17.69;68.83
13796;SHT30;40911;51.552;9.874;2023-05-07T15:09:04;17.70;69.83
13796;SHT30;40911;51.552;9.874;2023-05-07T15:11:26;17.76;69.23
13796;SHT30;40911;51.552;9.874;2023-05-07T15:13:50;17.28;69.82
13796;SHT30;40911;51.552;9.874;2023-05-07T15:16:12;17.74;69.53